Time;durP1;ratioP1;P1;durP2;ratioP2;P2;SDS_P1;SDS_P2;PMS_P1;PMS_P2;Temp;Humidity;BMP_temperature;BMP_pressure;BME280_temperature;BME280_humidity;BME280_pressure;Samples;Min_cycle;Max_cycle;Signal;HPM_P1;HPM_P2
2024/02/24 00:00:00;;;;;;;48.03;26.70;;;;;;;6.01;83.84;99270.06;5094796;28;20505;-74
2024/02/24 00:02:26;;;;;;;50.80;27.63;;;;;;;5.62;84.41;99266.66;5094841;28;20047;-74
2024/02/24 00:04:51;;;;;;;52.30;30.70;;;;;;;5.10;87.34;99267.59;5094997;28;20027;-74
2024/02/24 00:07:16;;;;;;;63.67;31.38;;;;;;;5.02;87.64;99265.50;5110331;28;20085;-74
2024/02/24 00:09:42;;;;;;;59.58;30.52;;;;;;;4.63;89.98;99270.25;5074461;28;20134;-74
2024/02/24 00:12:07;;;;;;;51.20;28.90;;;;;;;4.91;91.33;99271.22;5098944;28;20027;-74
2024/02/24 00:14:33;;;;;;;52.67;31.75;;;;;;;4.87;89.58;99266.56;5111266;28;20034;-74
2024/02/24 00:16:58;;;;;;;61.65;31.10;;;;;;;4.65;91.98;99270.81;5094492;28;20046;-74
2024/02/24 00:19:24;;;;;;;48.38;27.77;;;;;;;4.56;89.85;99262.34;5112818;28;20016;-74
2024/02/24 00:21:49;;;;;;;49.33;28.13;;;;;;;4.13;94.43;99265.16;5112663;28;20411;-74
2024/02/24 00:24:15;;;;;;;47.13;26.08;;;;;;;4.40;93.33;99256.19;5103119;28;20404;-73
2024/02/24 00:26:40;;;;;;;50.47;27.00;;;;;;;4.77;91.65;99264.78;5098201;28;20031;-73
2024/02/24 00:29:06;;;;;;;53.25;29.35;;;;;;;4.22;92.90;99242.03;5094552;28;20480;-73
2024/02/24 00:31:31;;;;;;;45.50;26.83;;;;;;;4.53;92.67;99262.94;5093329;28;20553;-73
2024/02/24 00:33:59;;;;;;;44.78;25.83;;;;;;;4.73;92.19;99247.13;5094580;28;20027;-73
2024/02/24 00:36:25;;;;;;;46.15;24.92;;;;;;;4.60;92.22;99266.16;5112484;28;20032;-73
2024/02/24 00:38:50;;;;;;;53.83;30.83;;;;;;;3.78;94.19;99257.00;5094261;28;20495;-73
2024/02/24 00:41:16;;;;;;;57.95;31.52;;;;;;;3.77;96.11;99245.13;5093492;28;20027;-73
2024/02/24 00:43:41;;;;;;;62.88;31.35;;;;;;;3.67;95.72;99250.78;5112508;28;20023;-73
2024/02/24 00:46:07;;;;;;;55.40;29.85;;;;;;;3.80;97.08;99249.22;5112329;28;20032;-73
2024/02/24 00:48:33;;;;;;;53.60;27.67;;;;;;;4.28;96.26;99258.56;5093282;28;20492;-73
2024/02/24 00:50:58;;;;;;;52.33;30.33;;;;;;;4.20;92.87;99263.69;5094058;28;20035;-73
2024/02/24 00:53:24;;;;;;;58.15;31.90;;;;;;;3.51;98.09;99253.72;5093937;28;20030;-73
2024/02/24 00:55:49;;;;;;;55.67;30.42;;;;;;;3.95;97.43;99259.28;5093794;28;20046;-73
2024/02/24 00:58:15;;;;;;;56.85;31.08;;;;;;;3.98;95.51;99264.25;5091314;28;20112;-73
2024/02/24 01:00:41;;;;;;;60.10;31.38;;;;;;;3.85;96.09;99251.94;5091654;28;20031;-73
2024/02/24 01:03:06;;;;;;;63.45;35.58;;;;;;;3.60;99.84;99256.66;5091581;28;20032;-73
2024/02/24 01:05:31;;;;;;;64.75;36.15;;;;;;;3.90;99.35;99260.16;5073384;28;20059;-73
2024/02/24 01:07:57;;;;;;;69.95;37.20;;;;;;;3.54;100.00;99252.28;5093595;28;20032;-73
2024/02/24 01:10:25;;;;;;;58.35;33.63;;;;;;;3.54;100.00;99243.19;5093485;28;20027;-73
2024/02/24 01:12:51;;;;;;;74.88;34.40;;;;;;;3.97;100.00;99236.84;5089965;28;20034;-73
2024/02/24 01:15:17;;;;;;;66.57;35.58;;;;;;;4.08;98.88;99253.03;5073201;28;20020;-73
2024/02/24 01:17:42;;;;;;;62.90;34.25;;;;;;;4.30;97.24;99265.47;5073082;28;20784;-73
2024/02/24 01:20:08;;;;;;;60.85;34.78;;;;;;;4.16;96.29;99259.88;5091311;28;20031;-73
2024/02/24 01:22:34;;;;;;;64.95;33.25;;;;;;;3.82;98.96;99257.22;5073232;28;20115;-73
2024/02/24 01:25:00;;;;;;;66.07;38.03;;;;;;;3.80;99.20;99260.28;5091273;28;20168;-73
2024/02/24 01:27:25;;;;;;;70.72;35.03;;;;;;;4.15;98.46;99260.16;5103426;28;20028;-73
2024/02/24 01:29:51;;;;;;;65.90;36.72;;;;;;;3.98;96.43;99267.00;5110353;28;20051;-73
2024/02/24 01:32:16;;;;;;;69.05;35.83;;;;;;;3.44;99.84;99264.28;5111277;28;20484;-73
2024/02/24 01:34:42;;;;;;;78.10;42.08;;;;;;;3.25;100.00;99264.19;5110285;28;20047;-72
2024/02/24 01:37:07;;;;;;;78.55;42.47;;;;;;;3.18;100.00;99261.78;5092301;28;20036;-72
2024/02/24 01:39:33;;;;;;;76.85;40.95;;;;;;;3.24;100.00;99254.25;5111364;28;20024;-71
2024/02/24 01:41:58;;;;;;;83.18;43.08;;;;;;;3.38;100.00;99251.66;5092817;28;20057;-72
2024/02/24 01:44:24;;;;;;;80.55;41.20;;;;;;;3.41;100.00;99241.91;5109958;28;20032;-72
2024/02/24 01:46:50;;;;;;;66.40;34.78;;;;;;;3.55;100.00;99248.41;5096768;28;20102;-72
2024/02/24 01:49:15;;;;;;;65.60;34.88;;;;;;;3.37;100.00;99248.03;5090677;28;20561;-72
2024/02/24 01:51:45;;;;;;;61.28;34.92;;;;;;;3.49;100.00;99244.88;5072379;28;20032;-72
2024/02/24 01:54:11;;;;;;;75.38;39.50;;;;;;;3.49;100.00;99239.34;5072484;28;20027;-72
2024/02/24 01:56:43;;;;;;;74.90;38.83;;;;;;;3.53;100.00;99244.28;5094895;28;20034;-72
2024/02/24 01:59:10;;;;;;;81.68;41.38;;;;;;;3.47;100.00;99241.56;5092374;28;20074;-72
2024/02/24 02:01:36;;;;;;;74.32;39.60;;;;;;;3.46;100.00;99239.94;5092561;28;20510;-72
2024/02/24 02:04:01;;;;;;;68.53;36.80;;;;;;;3.60;100.00;99247.53;5091509;28;20027;-72
2024/02/24 02:06:31;;;;;;;65.18;36.47;;;;;;;3.68;100.00;99244.13;5110925;28;20031;-72
2024/02/24 02:08:57;;;;;;;66.30;35.58;;;;;;;4.02;100.00;99243.16;5110630;28;20133;-72
2024/02/24 02:11:22;;;;;;;66.22;35.92;;;;;;;3.86;100.00;99236.16;5110752;28;20118;-72
2024/02/24 02:13:48;;;;;;;69.45;37.72;;;;;;;3.86;100.00;99244.44;5097654;28;20035;-72
2024/02/24 02:16:14;;;;;;;64.10;35.30;;;;;;;3.55;100.00;99242.06;5075570;28;20147;-72
2024/02/24 02:18:39;;;;;;;65.95;35.47;;;;;;;3.51;100.00;99242.66;5092278;28;20028;-72
2024/02/24 02:21:07;;;;;;;63.17;32.65;;;;;;;3.51;100.00;99248.19;5110593;28;20032;-72
2024/02/24 02:23:32;;;;;;;59.53;31.48;;;;;;;3.35;100.00;99243.91;5109666;28;20019;-72
2024/02/24 02:25:58;;;;;;;54.03;31.80;;;;;;;3.47;100.00;99247.09;5109415;28;20038;-72
2024/02/24 02:28:23;;;;;;;64.47;37.08;;;;;;;3.33;100.00;99243.38;5110323;28;20078;-72
2024/02/24 02:30:49;;;;;;;60.10;33.78;;;;;;;3.40;100.00;99252.19;5103153;28;20085;-72
2024/02/24 02:33:14;;;;;;;60.13;31.50;;;;;;;3.57;100.00;99235.13;5090022;28;20020;-72
2024/02/24 02:35:40;;;;;;;57.17;32.05;;;;;;;3.49;100.00;99242.09;5089902;28;20023;-72
2024/02/24 02:38:09;;;;;;;55.83;30.65;;;;;;;3.34;100.00;99259.69;5089855;28;20024;-72
2024/02/24 02:40:34;;;;;;;58.38;28.67;;;;;;;3.31;100.00;99262.22;5089765;28;20062;-72
2024/02/24 02:43:00;;;;;;;62.45;33.55;;;;;;;3.30;100.00;99260.56;5089913;28;20109;-72
2024/02/24 02:45:25;;;;;;;58.33;31.88;;;;;;;3.41;100.00;99264.03;5089971;28;20172;-73
2024/02/24 02:47:50;;;;;;;55.85;30.13;;;;;;;3.57;100.00;99257.25;5071172;28;20028;-72
2024/02/24 02:50:16;;;;;;;50.63;29.02;;;;;;;3.65;100.00;99239.19;5091672;28;20093;-72
2024/02/24 02:52:42;;;;;;;52.42;29.73;;;;;;;3.81;100.00;99245.34;5109464;28;20050;-72
2024/02/24 02:55:07;;;;;;;56.75;30.73;;;;;;;3.36;100.00;99254.69;5091805;28;20483;-73
2024/02/24 02:57:33;;;;;;;62.25;31.55;;;;;;;3.39;100.00;99255.22;5090023;28;20047;-72
2024/02/24 02:59:58;;;;;;;55.85;30.63;;;;;;;3.54;100.00;99254.25;5087820;28;20055;-72
2024/02/24 03:02:24;;;;;;;58.83;31.17;;;;;;;3.69;99.86;99251.28;5089574;28;20047;-72
2024/02/24 03:04:49;;;;;;;61.20;31.67;;;;;;;3.78;99.40;99249.53;5089893;28;20036;-72
2024/02/24 03:07:15;;;;;;;63.08;34.30;;;;;;;3.90;97.95;99245.53;5104764;28;20035;-72
2024/02/24 03:09:46;;;;;;;60.20;33.60;;;;;;;3.87;98.38;99254.44;5090946;28;20511;-72
2024/02/24 03:12:11;;;;;;;59.03;33.90;;;;;;;3.01;100.00;99239.25;5110005;28;20024;-72
2024/02/24 03:14:37;;;;;;;54.47;31.98;;;;;;;3.38;100.00;99257.19;5110017;28;20054;-72
2024/02/24 03:17:03;;;;;;;54.97;32.05;;;;;;;3.28;100.00;99260.84;5109544;28;20035;-72
2024/02/24 03:19:28;;;;;;;57.97;31.10;;;;;;;3.09;100.00;99252.47;5109890;28;20016;-72
2024/02/24 03:21:54;;;;;;;54.65;28.92;;;;;;;3.12;100.00;99256.59;5087627;28;20024;-72
2024/02/24 03:24:19;;;;;;;53.88;31.17;;;;;;;3.28;100.00;99262.81;5090517;28;20035;-72
2024/02/24 03:26:45;;;;;;;47.53;27.20;;;;;;;3.40;100.00;99277.06;5108982;28;20039;-72
2024/02/24 03:29:10;;;;;;;56.60;27.77;;;;;;;3.36;100.00;99285.09;5109624;28;20020;-72
2024/02/24 03:31:36;;;;;;;54.72;29.58;;;;;;;3.30;100.00;99269.66;5091475;28;20031;-72
2024/02/24 03:34:01;;;;;;;52.05;29.50;;;;;;;2.77;100.00;99273.16;5109706;28;20023;-73
2024/02/24 03:36:26;;;;;;;52.63;28.73;;;;;;;2.78;100.00;99269.31;5090027;28;20026;-72
2024/02/24 03:38:52;;;;;;;53.97;30.38;;;;;;;2.79;100.00;99276.50;5105933;28;20024;-72
2024/02/24 03:41:17;;;;;;;47.58;28.52;;;;;;;2.81;100.00;99279.78;5089388;28;20032;-72
2024/02/24 03:43:43;;;;;;;44.60;27.70;;;;;;;2.73;100.00;99285.91;5089235;28;20081;-72
2024/02/24 03:46:08;;;;;;;54.13;29.45;;;;;;;2.56;100.00;99280.78;5089373;28;20094;-72
2024/02/24 03:48:34;;;;;;;54.22;29.35;;;;;;;2.55;100.00;99288.25;5070934;28;20020;-72
2024/02/24 03:51:00;;;;;;;60.65;30.02;;;;;;;2.39;100.00;99291.09;5101344;28;20023;-72
2024/02/24 03:53:26;;;;;;;55.33;27.10;;;;;;;2.19;100.00;99280.16;5108736;28;20031;-72
2024/02/24 03:55:52;;;;;;;64.22;29.98;;;;;;;2.15;100.00;99293.72;5093975;28;20024;-73
2024/02/24 03:58:18;;;;;;;54.17;30.67;;;;;;;2.07;100.00;99302.56;5089265;28;20105;-73
2024/02/24 04:00:44;;;;;;;53.03;28.73;;;;;;;2.14;100.00;99310.53;5074476;28;20076;-73
2024/02/24 04:03:10;;;;;;;59.83;28.52;;;;;;;2.00;100.00;99302.88;5092930;28;20053;-73
2024/02/24 04:05:35;;;;;;;50.78;28.75;;;;;;;1.78;100.00;99293.00;5092741;28;20063;-73
2024/02/24 04:08:01;;;;;;;55.88;29.85;;;;;;;1.99;100.00;99295.69;5110764;28;20108;-73
2024/02/24 04:10:26;;;;;;;54.00;29.90;;;;;;;2.06;100.00;99306.44;5112951;28;20030;-73
2024/02/24 04:12:52;;;;;;;57.65;31.10;;;;;;;2.14;100.00;99316.06;5106437;28;20020;-73
2024/02/24 04:15:22;;;;;;;57.97;30.35;;;;;;;2.14;100.00;99321.56;5074289;28;20564;-73
2024/02/24 04:17:48;;;;;;;52.03;28.80;;;;;;;2.15;100.00;99309.44;5092472;28;20016;-73
2024/02/24 04:20:14;;;;;;;57.50;30.27;;;;;;;2.46;100.00;99320.31;5092431;28;20499;-73
2024/02/24 04:22:40;;;;;;;48.83;27.25;;;;;;;2.28;100.00;99313.50;5088660;28;20023;-73
2024/02/24 04:25:06;;;;;;;50.42;28.42;;;;;;;2.38;100.00;99310.72;5112728;28;20559;-73
2024/02/24 04:27:32;;;;;;;57.70;34.40;;;;;;;2.59;100.00;99322.44;5111584;28;20092;-73
2024/02/24 04:29:57;;;;;;;55.92;29.90;;;;;;;2.50;100.00;99326.91;5093132;28;20036;-73
2024/02/24 04:32:22;;;;;;;60.50;30.63;;;;;;;2.48;100.00;99323.63;5074061;28;20031;-73
2024/02/24 04:34:48;;;;;;;53.17;29.85;;;;;;;2.74;100.00;99323.47;5095909;28;20034;-73
2024/02/24 04:37:13;;;;;;;59.47;31.67;;;;;;;2.91;100.00;99328.59;5094178;28;20035;-73
2024/02/24 04:39:39;;;;;;;55.97;30.52;;;;;;;2.90;100.00;99324.19;5111590;28;20480;-73
2024/02/24 04:42:04;;;;;;;47.15;26.98;;;;;;;2.99;100.00;99329.91;5094055;28;20024;-73
2024/02/24 04:44:30;;;;;;;51.17;29.35;;;;;;;3.09;100.00;99340.91;5089981;28;20404;-73
2024/02/24 04:46:56;;;;;;;62.05;29.98;;;;;;;2.99;100.00;99352.03;5092025;28;20036;-73
2024/02/24 04:49:21;;;;;;;58.75;30.85;;;;;;;3.07;100.00;99345.91;5091745;28;20564;-73
2024/02/24 04:51:47;;;;;;;59.33;30.95;;;;;;;3.04;100.00;99343.72;5073683;28;20035;-73
2024/02/24 04:54:13;;;;;;;62.75;31.73;;;;;;;3.03;100.00;99358.66;5091804;28;20484;-73
2024/02/24 04:56:39;;;;;;;70.45;36.13;;;;;;;2.50;100.00;99357.28;5100338;28;20020;-73
2024/02/24 04:59:04;;;;;;;105.20;53.78;;;;;;;2.47;100.00;99360.63;5094619;28;20479;-73
2024/02/24 05:01:29;;;;;;;125.25;58.60;;;;;;;2.81;100.00;99360.69;5073309;28;20032;-73
2024/02/24 05:03:55;;;;;;;108.95;48.88;;;;;;;3.01;100.00;99367.22;5091712;28;20024;-73
2024/02/24 05:06:20;;;;;;;85.70;44.08;;;;;;;2.72;100.00;99372.66;5091531;28;20031;-73
2024/02/24 05:08:46;;;;;;;71.20;39.35;;;;;;;2.29;100.00;99373.94;5091572;28;20035;-73
2024/02/24 05:11:11;;;;;;;59.00;34.10;;;;;;;2.57;100.00;99360.59;5073150;28;20539;-73
2024/02/24 05:13:37;;;;;;;69.80;37.25;;;;;;;2.59;100.00;99361.13;5099191;28;20035;-73
2024/02/24 05:16:06;;;;;;;77.10;42.08;;;;;;;2.73;100.00;99374.28;5102436;28;20035;-73
2024/02/24 05:18:32;;;;;;;89.68;42.83;;;;;;;2.67;100.00;99374.34;5091382;28;20028;-73
2024/02/24 05:21:01;;;;;;;83.45;40.80;;;;;;;2.55;100.00;99365.56;5072904;28;20017;-73
2024/02/24 05:23:26;;;;;;;95.78;44.55;;;;;;;2.67;100.00;99376.25;5072957;28;20915;-73
2024/02/24 05:25:52;;;;;;;98.30;53.00;;;;;;;2.98;100.00;99389.91;5091152;28;20024;-73
2024/02/24 05:28:18;;;;;;;101.55;50.75;;;;;;;3.08;100.00;99387.06;5091631;28;20027;-73
2024/02/24 05:30:43;;;;;;;87.38;47.45;;;;;;;3.31;100.00;99392.16;5093237;28;20023;-72
2024/02/24 05:33:09;;;;;;;72.85;42.20;;;;;;;3.19;100.00;99398.88;5108755;28;20020;-74
2024/02/24 05:35:35;;;;;;;134.43;84.22;;;;;;;2.95;100.00;99407.03;5082130;28;20141;-74
2024/02/24 05:38:00;;;;;;;209.00;130.85;;;;;;;3.22;100.00;99422.38;5092967;28;20047;-73
2024/02/24 05:40:26;;;;;;;111.90;68.32;;;;;;;3.44;100.00;99413.63;5111130;28;20484;-73
2024/02/24 05:42:51;;;;;;;63.30;39.15;;;;;;;3.54;100.00;99425.72;5108988;28;20033;-74
2024/02/24 05:45:17;;;;;;;51.45;30.30;;;;;;;3.47;100.00;99431.59;5111178;28;20019;-74
2024/02/24 05:47:43;;;;;;;109.05;52.70;;;;;;;3.04;100.00;99437.69;5111579;28;20488;-73
2024/02/24 05:50:09;;;;;;;84.90;47.40;;;;;;;2.92;100.00;99447.13;5100008;28;20027;-72
2024/02/24 05:52:35;;;;;;;90.53;47.90;;;;;;;2.88;100.00;99434.16;5111125;28;20072;-72
2024/02/24 05:55:07;;;;;;;65.68;35.88;;;;;;;3.34;100.00;99457.94;5110950;28;20499;-72
2024/02/24 05:57:32;;;;;;;78.30;39.40;;;;;;;3.54;100.00;99450.59;5109136;28;20112;-72
2024/02/24 05:59:58;;;;;;;57.88;29.33;;;;;;;3.78;100.00;99472.81;5094703;28;20031;-71
2024/02/24 06:02:23;;;;;;;81.18;49.33;;;;;;;3.96;100.00;99471.28;5072307;28;20467;-71
2024/02/24 06:04:49;;;;;;;55.38;29.88;;;;;;;4.16;100.00;99473.03;5090485;28;20488;-71
2024/02/24 06:07:15;;;;;;;70.00;44.15;;;;;;;4.44;100.00;99459.44;5091631;28;20038;-72
2024/02/24 06:09:40;;;;;;;66.07;40.65;;;;;;;4.84;100.00;99462.03;5110717;28;20092;-71
2024/02/24 06:12:06;;;;;;;48.83;31.23;;;;;;;4.55;99.45;99460.16;5110660;28;20031;-71
2024/02/24 06:14:32;;;;;;;50.75;30.15;;;;;;;4.82;99.41;99452.34;5110846;28;20028;-72
2024/02/24 06:16:57;;;;;;;65.80;35.92;;;;;;;5.11;98.65;99448.63;5088466;28;20420;-72
2024/02/24 06:19:23;;;;;;;76.40;35.47;;;;;;;5.13;98.40;99455.53;5078797;28;20023;-72
2024/02/24 06:21:48;;;;;;;71.60;36.72;;;;;;;5.43;97.37;99459.00;5099298;28;20016;-73
2024/02/24 06:24:14;;;;;;;64.32;35.13;;;;;;;5.55;96.00;99457.69;5084059;28;20027;-73
2024/02/24 06:26:40;;;;;;;57.95;32.47;;;;;;;5.71;94.88;99453.56;5099375;28;20023;-74
2024/02/24 06:29:05;;;;;;;61.33;31.23;;;;;;;5.89;94.21;99456.56;5092277;28;20050;-72
2024/02/24 06:31:30;;;;;;;51.30;27.40;;;;;;;6.05;93.26;99454.38;5109275;28;20092;-73
2024/02/24 06:33:56;;;;;;;45.30;26.73;;;;;;;6.14;93.76;99448.94;5088430;28;20039;-72
2024/02/24 06:36:21;;;;;;;41.13;24.73;;;;;;;5.79;94.94;99463.13;5105210;28;20854;-72
2024/02/24 06:38:47;;;;;;;54.78;29.00;;;;;;;5.63;97.00;99462.56;5087660;28;20100;-71
2024/02/24 06:41:14;;;;;;;61.95;32.45;;;;;;;6.19;95.74;99454.44;5107853;28;20101;-72
2024/02/24 06:43:39;;;;;;;53.75;29.13;;;;;;;6.34;94.71;99435.81;5107803;28;20032;-71
2024/02/24 06:46:05;;;;;;;37.35;23.98;;;;;;;6.68;93.52;99449.28;5089633;28;20027;-71
2024/02/24 06:48:30;;;;;;;58.53;38.00;;;;;;;6.98;92.66;99437.84;5107908;28;20544;-70
2024/02/24 06:50:56;;;;;;;70.45;47.92;;;;;;;7.25;91.27;99444.50;5101426;28;20384;-70
2024/02/24 06:53:21;;;;;;;71.80;43.30;;;;;;;7.34;90.36;99450.13;5090713;28;20043;-72
2024/02/24 06:55:46;;;;;;;98.22;72.68;;;;;;;7.49;89.43;99446.97;5110893;28;20030;-72
2024/02/24 06:58:12;;;;;;;67.00;40.35;;;;;;;7.64;87.96;99440.22;5110797;28;20085;-72
2024/02/24 07:00:37;;;;;;;105.97;75.55;;;;;;;7.77;86.88;99440.47;5096926;28;20044;-72
2024/02/24 07:03:03;;;;;;;63.58;35.22;;;;;;;7.73;87.27;99446.69;5089687;28;20039;-71
2024/02/24 07:05:28;;;;;;;54.47;30.73;;;;;;;7.57;88.77;99437.06;5089684;28;20023;-72
2024/02/24 07:07:55;;;;;;;59.55;33.15;;;;;;;7.83;86.86;99428.06;5094014;28;20031;-71
2024/02/24 07:10:20;;;;;;;55.88;31.77;;;;;;;7.34;89.18;99428.69;5109074;28;20028;-72
2024/02/24 07:12:48;;;;;;;51.60;30.50;;;;;;;7.81;88.74;99431.19;5109543;28;20028;-71
2024/02/24 07:15:14;;;;;;;58.90;33.50;;;;;;;8.13;87.26;99436.78;5104229;28;20024;-72
2024/02/24 07:17:40;;;;;;;60.60;33.22;;;;;;;8.10;87.44;99452.16;5074760;28;20027;-71
2024/02/24 07:20:06;;;;;;;76.22;35.15;;;;;;;8.05;88.32;99452.31;5108289;28;20035;-72
2024/02/24 07:22:32;;;;;;;53.67;29.67;;;;;;;7.67;91.21;99459.06;5108615;28;20415;-72
2024/02/24 07:24:57;;;;;;;54.58;27.25;;;;;;;7.55;92.83;99456.88;5108665;28;20447;-69
2024/02/24 07:27:23;;;;;;;48.83;28.95;;;;;;;7.95;91.98;99463.69;5107752;28;20039;-69
2024/02/24 07:29:48;;;;;;;53.78;28.77;;;;;;;8.38;90.27;99451.16;5091430;28;20032;-70
2024/02/24 07:32:13;;;;;;;58.70;27.63;;;;;;;8.82;88.47;99457.75;5106614;28;20028;-70
2024/02/24 07:34:39;;;;;;;53.35;28.63;;;;;;;8.83;88.71;99470.56;5111926;28;20028;-69
2024/02/24 07:37:05;;;;;;;45.33;26.67;;;;;;;8.68;89.51;99460.66;5113174;28;20032;-69
2024/02/24 07:39:30;;;;;;;42.63;24.55;;;;;;;8.68;90.05;99468.19;5113711;28;20019;-69
2024/02/24 07:41:56;;;;;;;38.65;23.98;;;;;;;9.15;88.61;99469.63;5113497;28;20028;-69
2024/02/24 07:44:21;;;;;;;29.30;20.17;;;;;;;9.30;86.85;99462.75;5111008;28;20027;-68
2024/02/24 07:46:47;;;;;;;31.35;19.13;;;;;;;9.52;86.75;99467.38;5106191;28;20493;-72
2024/02/24 07:49:14;;;;;;;50.53;29.73;;;;;;;9.66;85.14;99479.22;5081729;28;20070;-72
2024/02/24 07:51:43;;;;;;;25.58;16.38;;;;;;;9.98;83.97;99465.06;5110397;28;20032;-72
2024/02/24 07:54:08;;;;;;;21.98;14.77;;;;;;;10.03;83.74;99466.88;5109142;28;20039;-70
2024/02/24 07:56:34;;;;;;;28.95;17.20;;;;;;;9.92;83.05;99467.19;5101593;28;20027;-71
2024/02/24 07:58:59;;;;;;;23.33;17.08;;;;;;;10.29;81.95;99475.16;5082397;28;20048;-70
2024/02/24 08:01:24;;;;;;;31.48;16.05;;;;;;;10.04;82.60;99476.88;5109888;28;20050;-70
2024/02/24 08:03:50;;;;;;;24.00;15.90;;;;;;;10.11;81.45;99471.59;5092224;28;20023;-69
2024/02/24 08:06:15;;;;;;;27.80;17.67;;;;;;;10.53;81.42;99466.25;5105983;28;20034;-70
2024/02/24 08:08:41;;;;;;;28.27;17.40;;;;;;;10.90;78.91;99467.75;5094121;28;20561;-70
2024/02/24 08:11:06;;;;;;;31.30;19.80;;;;;;;10.92;78.28;99466.25;5101470;28;20330;-70
2024/02/24 08:13:32;;;;;;;36.33;21.23;;;;;;;11.06;78.60;99465.19;5110960;28;20492;-68
2024/02/24 08:16:05;;;;;;;29.58;18.40;;;;;;;11.27;78.37;99462.41;5090716;28;20524;-68
2024/02/24 08:18:31;;;;;;;23.80;15.07;;;;;;;11.38;79.73;99477.66;5072622;28;20416;-69
2024/02/24 08:21:04;;;;;;;20.00;13.43;;;;;;;11.50;79.12;99464.88;5103725;28;20019;-68
2024/02/24 08:23:29;;;;;;;24.17;15.48;;;;;;;11.58;78.71;99463.97;5110699;28;20102;-70
2024/02/24 08:25:56;;;;;;;21.58;14.50;;;;;;;11.61;78.03;99446.50;5092060;28;20092;-70
2024/02/24 08:28:21;;;;;;;27.98;15.10;;;;;;;11.64;78.47;99457.00;5110209;28;20026;-70
2024/02/24 08:30:46;;;;;;;26.73;14.35;;;;;;;11.81;77.52;99455.22;5091786;28;20023;-70
2024/02/24 08:33:12;;;;;;;20.00;13.85;;;;;;;11.93;77.50;99454.47;5107310;28;20059;-71
2024/02/24 08:35:37;;;;;;;26.15;14.25;;;;;;;11.76;76.09;99447.84;5107297;28;20088;-72
2024/02/24 08:38:03;;;;;;;25.45;14.50;;;;;;;12.26;76.11;99456.47;5086940;28;20088;-71
2024/02/24 08:40:28;;;;;;;19.00;13.50;;;;;;;12.37;73.15;99451.22;5089695;28;20024;-71
2024/02/24 08:42:54;;;;;;;19.92;13.88;;;;;;;12.60;72.99;99457.19;5089884;28;20031;-70
2024/02/24 08:45:19;;;;;;;21.10;14.13;;;;;;;12.83;72.90;99455.94;5089059;28;20024;-70
2024/02/24 08:47:45;;;;;;;25.75;16.67;;;;;;;13.14;71.20;99458.16;5099548;28;20027;-71
2024/02/24 08:50:10;;;;;;;21.13;14.20;;;;;;;13.40;69.90;99470.16;5090882;28;20023;-71
2024/02/24 08:52:36;;;;;;;24.52;16.38;;;;;;;13.43;69.42;99463.84;5109668;28;20488;-71
2024/02/24 08:55:01;;;;;;;29.63;16.13;;;;;;;13.39;67.83;99460.09;5107611;28;20031;-71
2024/02/24 08:57:27;;;;;;;25.90;16.15;;;;;;;13.48;68.27;99472.03;5103362;28;20508;-71
2024/02/24 08:59:52;;;;;;;21.52;15.93;;;;;;;13.46;68.66;99469.59;5108923;28;20050;-71
2024/02/24 09:02:19;;;;;;;27.80;16.05;;;;;;;13.58;68.64;99470.75;5087209;28;20039;-71
2024/02/24 09:04:44;;;;;;;29.17;17.40;;;;;;;13.72;67.91;99461.91;5087090;28;20035;-71
2024/02/24 09:07:10;;;;;;;27.40;18.00;;;;;;;14.03;67.96;99463.19;5091279;28;20427;-71
2024/02/24 09:09:35;;;;;;;26.27;17.80;;;;;;;13.99;66.37;99462.25;5087148;28;20078;-71
2024/02/24 09:12:01;;;;;;;28.13;16.80;;;;;;;13.73;68.67;99460.72;5090743;28;20050;-71
2024/02/24 09:14:26;;;;;;;32.03;17.05;;;;;;;14.16;68.04;99463.94;5090119;28;20028;-71
2024/02/24 09:16:55;;;;;;;27.27;17.85;;;;;;;14.42;65.48;99455.00;5085576;28;20028;-71
2024/02/24 09:19:22;;;;;;;29.05;18.15;;;;;;;14.37;65.31;99465.69;5095728;28;20100;-71
2024/02/24 09:21:47;;;;;;;31.55;18.60;;;;;;;14.39;66.81;99464.16;5111139;28;20027;-71
2024/02/24 09:24:13;;;;;;;31.05;19.58;;;;;;;14.42;66.06;99465.44;5104227;28;20094;-71
2024/02/24 09:26:38;;;;;;;32.90;19.95;;;;;;;14.67;65.37;99468.09;5109691;28;20483;-71
2024/02/24 09:29:03;;;;;;;33.75;19.80;;;;;;;14.97;63.59;99462.84;5116907;27;20057;-71
2024/02/24 09:31:29;;;;;;;32.85;18.80;;;;;;;15.15;63.35;99470.91;5121635;27;20026;-71
2024/02/24 09:33:55;;;;;;;31.83;20.98;;;;;;;15.26;61.78;99466.34;5100010;28;20042;-71
2024/02/24 09:36:21;;;;;;;33.53;19.45;;;;;;;15.34;61.36;99455.22;5099571;28;20020;-70
2024/02/24 09:38:46;;;;;;;30.50;18.77;;;;;;;15.28;61.89;99455.50;5072680;28;20027;-70
2024/02/24 09:41:12;;;;;;;29.80;19.17;;;;;;;15.33;61.51;99459.25;5091030;28;20073;-70
2024/02/24 09:43:39;;;;;;;31.75;20.10;;;;;;;15.43;61.77;99461.47;5090963;28;20047;-71
2024/02/24 09:46:05;;;;;;;83.55;44.05;;;;;;;15.60;60.53;99460.22;5075381;28;20051;-70
2024/02/24 09:48:31;;;;;;;29.38;17.05;;;;;;;15.60;61.65;99462.25;5090775;28;20028;-74
2024/02/24 09:50:59;;;;;;;25.05;15.15;;;;;;;15.71;61.30;99452.81;5090812;28;20085;-70
2024/02/24 09:53:24;;;;;;;28.70;15.95;;;;;;;16.07;61.31;99435.84;5073955;28;20031;-71
2024/02/24 09:55:52;;;;;;;23.70;16.13;;;;;;;16.16;58.92;99432.78;5090899;28;20412;-69
2024/02/24 09:58:18;;;;;;;26.00;15.10;;;;;;;15.96;59.16;99434.81;5090423;28;20050;-70
2024/02/24 10:00:44;;;;;;;24.73;15.63;;;;;;;15.97;58.62;99427.97;5072684;28;20107;-72
2024/02/24 10:03:10;;;;;;;28.10;15.65;;;;;;;16.00;59.16;99435.69;5077603;28;20032;-73
2024/02/24 10:05:39;;;;;;;25.80;16.67;;;;;;;16.34;58.30;99429.47;5090747;28;20027;-73
2024/02/24 10:08:06;;;;;;;28.08;17.20;;;;;;;16.41;59.00;99421.97;5090835;28;20024;-70
2024/02/24 10:10:31;;;;;;;28.60;17.67;;;;;;;16.57;59.70;99423.84;5090395;28;20145;-69
2024/02/24 10:13:01;;;;;;;25.38;17.35;;;;;;;16.34;58.10;99424.66;5090656;28;20509;-70
2024/02/24 10:15:27;;;;;;;29.35;17.70;;;;;;;16.64;58.51;99418.28;5072263;28;20111;-71
2024/02/24 10:17:58;;;;;;;27.48;17.95;;;;;;;16.77;59.68;99416.09;5090427;28;20536;-70
2024/02/24 10:20:24;;;;;;;33.40;18.75;;;;;;;16.89;57.52;99415.06;5106966;28;20047;-72
2024/02/24 10:22:50;;;;;;;28.88;17.33;;;;;;;17.13;56.13;99418.66;5110670;28;20023;-72
2024/02/24 10:25:16;;;;;;;31.92;17.98;;;;;;;16.96;57.20;99422.84;5092296;28;20028;-74
2024/02/24 10:27:46;;;;;;;30.80;17.50;;;;;;;17.23;57.26;99420.03;5086083;28;20050;-74
2024/02/24 10:30:12;;;;;;;30.85;19.23;;;;;;;17.01;57.69;99421.72;5071504;28;20035;-73
2024/02/24 10:32:38;;;;;;;32.72;18.55;;;;;;;17.35;58.25;99427.47;5087414;28;20027;-73
2024/02/24 10:35:05;;;;;;;35.38;17.52;;;;;;;17.46;57.84;99408.63;5089380;28;20036;-73
2024/02/24 10:37:32;;;;;;;32.42;16.92;;;;;;;17.68;56.09;99414.56;5070401;28;20039;-73
2024/02/24 10:40:03;;;;;;;24.67;15.02;;;;;;;17.44;56.21;99402.56;5088206;28;20015;-74
2024/02/24 10:42:29;;;;;;;30.77;17.52;;;;;;;17.25;56.83;99393.03;5069743;28;20035;-73
2024/02/24 10:44:55;;;;;;;21.25;14.05;;;;;;;17.53;55.66;99397.44;5076633;28;20028;-72
2024/02/24 10:47:21;;;;;;;20.90;14.02;;;;;;;17.76;54.64;99393.66;5069883;28;20036;-73
2024/02/24 10:49:48;;;;;;;19.92;12.68;;;;;;;17.54;56.49;99395.41;5089190;28;20039;-73
2024/02/24 10:52:17;;;;;;;15.10;11.63;;;;;;;17.73;54.81;99374.63;5090431;28;20031;-74
2024/02/24 10:54:45;;;;;;;19.73;10.00;;;;;;;18.08;54.29;99378.28;5089586;28;20409;-74
2024/02/24 10:57:13;;;;;;;21.38;9.13;;;;;;;17.92;52.93;99378.47;5089369;28;20078;-74
2024/02/24 10:59:39;;;;;;;11.02;9.05;;;;;;;18.16;50.93;99368.66;5107800;28;20027;-75
2024/02/24 11:02:10;;;;;;;14.73;9.10;;;;;;;18.15;51.20;99364.19;5093973;28;20370;-75
2024/02/24 11:04:36;;;;;;;16.00;8.55;;;;;;;18.37;50.63;99381.38;5069330;28;20032;-74
2024/02/24 11:07:04;;;;;;;15.30;9.50;;;;;;;18.48;52.74;99378.66;5069464;28;20516;-76
2024/02/24 11:09:34;;;;;;;14.63;7.80;;;;;;;18.77;48.42;99378.88;5092354;28;20107;-76
2024/02/24 11:12:10;;;;;;;12.70;7.50;;;;;;;18.69;49.46;99377.19;5082958;28;20019;-76